Time;durP1;ratioP1;P1;durP2;ratioP2;P2;SDS_P1;SDS_P2;PMS_P1;PMS_P2;Temp;Humidity;BMP_temperature;BMP_pressure;BME280_temperature;BME280_humidity;BME280_pressure;Samples;Min_cycle;Max_cycle;Signal;HPM_P1;HPM_P2
2021/08/09 00:01:36;;;;;;;10.40;8.40;;;;;;;22.73;100.00;101385.38;5052062;28;20161;-75
2021/08/09 00:04:03;;;;;;;10.60;7.57;;;;;;;22.62;100.00;101386.56;5051486;28;20201;-75
2021/08/09 00:06:29;;;;;;;10.83;6.70;;;;;;;22.61;100.00;101381.38;5051825;28;20502;-75
2021/08/09 00:08:54;;;;;;;9.70;7.70;;;;;;;22.45;100.00;101387.53;5051589;28;20486;-76
2021/08/09 00:11:20;;;;;;;11.00;6.70;;;;;;;22.36;100.00;101386.66;5051794;28;20181;-75
2021/08/09 00:13:47;;;;;;;8.43;6.20;;;;;;;22.25;100.00;101391.50;5051600;28;20184;-74
2021/08/09 00:16:13;;;;;;;8.27;6.47;;;;;;;22.13;100.00;101382.91;5052093;28;20178;-74
2021/08/09 00:18:41;;;;;;;9.77;6.70;;;;;;;22.02;100.00;101399.25;5051328;28;20873;-74
2021/08/09 00:21:07;;;;;;;8.87;6.97;;;;;;;21.95;100.00;101409.75;5051911;28;20565;-74
2021/08/09 00:23:33;;;;;;;8.83;5.73;;;;;;;21.90;100.00;101404.03;5051520;28;20423;-74
2021/08/09 00:25:58;;;;;;;8.00;6.60;;;;;;;21.86;100.00;101413.38;5051023;28;20641;-73
2021/08/09 00:28:25;;;;;;;10.13;6.50;;;;;;;21.80;100.00;101414.84;5051304;28;20250;-75
2021/08/09 00:30:50;;;;;;;8.90;6.10;;;;;;;21.70;100.00;101406.13;5051222;28;20260;-74
2021/08/09 00:33:16;;;;;;;9.20;6.40;;;;;;;21.67;100.00;101411.75;5051129;28;20477;-75
2021/08/09 00:35:41;;;;;;;7.90;6.13;;;;;;;21.66;100.00;101409.25;5050940;28;20184;-74
2021/08/09 00:38:06;;;;;;;9.23;6.00;;;;;;;21.57;100.00;101411.88;5051140;28;20231;-75
2021/08/09 00:40:32;;;;;;;7.43;5.60;;;;;;;21.49;100.00;101417.19;5051042;28;20196;-76
2021/08/09 00:42:57;;;;;;;9.90;6.83;;;;;;;21.42;100.00;101415.28;5050832;28;20187;-76
2021/08/09 00:45:23;;;;;;;13.07;6.20;;;;;;;21.37;100.00;101410.41;5050956;28;20169;-75
2021/08/09 00:47:48;;;;;;;8.07;5.90;;;;;;;21.33;100.00;101412.56;5050795;28;20165;-75
2021/08/09 00:50:14;;;;;;;7.53;5.67;;;;;;;21.33;100.00;101407.22;5050875;28;20169;-75
2021/08/09 00:52:40;;;;;;;10.47;5.80;;;;;;;21.39;100.00;101404.91;5050625;28;20228;-75
2021/08/09 00:55:05;;;;;;;7.27;4.87;;;;;;;21.36;100.00;101406.03;5047709;28;20192;-76
2021/08/09 00:57:31;;;;;;;9.87;6.43;;;;;;;21.42;100.00;101404.59;5050909;28;20278;-74
2021/08/09 00:59:58;;;;;;;11.63;6.90;;;;;;;21.41;100.00;101398.41;5050689;28;20234;-73
2021/08/09 01:02:23;;;;;;;11.13;5.97;;;;;;;21.41;100.00;101397.56;5050578;28;20256;-74
2021/08/09 01:04:49;;;;;;;7.50;5.67;;;;;;;21.44;100.00;101394.56;5050154;28;20404;-74
2021/08/09 01:07:15;;;;;;;10.60;6.27;;;;;;;21.39;100.00;101392.38;5050970;28;20177;-75
2021/08/09 01:10:01;;;;;;;7.20;5.60;;;;;;;21.30;100.00;101391.47;5050858;28;20660;-74
2021/08/09 01:12:42;;;;;;;7.37;5.87;;;;;;;21.44;100.00;101382.03;5050556;28;20189;-74
2021/08/09 01:15:13;;;;;;;13.40;7.13;;;;;;;21.38;100.00;101381.81;5051019;28;20422;-75
2021/08/09 01:17:44;;;;;;;8.97;6.00;;;;;;;21.28;100.00;101384.59;5050805;28;20441;-75
2021/08/09 01:20:33;;;;;;;10.40;5.30;;;;;;;21.22;100.00;101388.69;5050532;28;20415;-75
2021/08/09 01:23:25;;;;;;;8.33;5.60;;;;;;;21.23;100.00;101374.34;5050503;28;20930;-74
2021/08/09 01:25:58;;;;;;;7.40;5.90;;;;;;;21.22;100.00;101379.84;5050293;28;20498;-74
2021/08/09 01:28:29;;;;;;;6.80;5.30;;;;;;;21.15;100.00;101381.47;5048950;28;20513;-74
2021/08/09 01:30:56;;;;;;;9.20;5.97;;;;;;;21.17;100.00;101376.81;5050358;28;20749;-74
2021/08/09 01:33:23;;;;;;;10.57;5.97;;;;;;;21.16;100.00;101370.63;5050131;28;20447;-74
2021/08/09 01:35:52;;;;;;;10.87;5.80;;;;;;;21.12;100.00;101371.09;5050790;28;20510;-74
2021/08/09 01:38:19;;;;;;;11.97;6.07;;;;;;;21.13;100.00;101381.63;5050441;28;20407;-74
2021/08/09 01:40:47;;;;;;;8.77;6.00;;;;;;;21.16;100.00;101380.47;5050724;28;20419;-75
2021/08/09 01:43:14;;;;;;;13.23;5.63;;;;;;;21.13;100.00;101380.78;5050668;28;20420;-74
2021/08/09 01:45:40;;;;;;;6.70;5.53;;;;;;;21.04;100.00;101378.03;5050536;28;20837;-74
2021/08/09 01:48:06;;;;;;;9.07;6.00;;;;;;;21.04;100.00;101379.88;5050397;28;20457;-74
2021/08/09 01:50:32;;;;;;;10.53;6.20;;;;;;;20.98;100.00;101369.81;5050328;28;20439;-74
2021/08/09 01:52:58;;;;;;;9.60;6.00;;;;;;;20.97;100.00;101376.16;5050160;28;20590;-74
2021/08/09 01:55:24;;;;;;;10.40;6.20;;;;;;;20.92;100.00;101371.25;5050001;28;20197;-73
2021/08/09 01:57:50;;;;;;;13.60;5.60;;;;;;;20.90;100.00;101367.06;5050490;28;20419;-74
2021/08/09 02:00:16;;;;;;;6.90;5.10;;;;;;;20.85;100.00;101367.53;5050346;28;20491;-74
2021/08/09 02:02:44;;;;;;;7.90;6.43;;;;;;;20.86;100.00;101371.91;5049953;28;20633;-74
2021/08/09 02:05:12;;;;;;;10.57;6.60;;;;;;;20.85;100.00;101375.53;5050190;28;20468;-74
2021/08/09 02:07:41;;;;;;;11.00;6.10;;;;;;;20.82;100.00;101369.66;5050022;28;20962;-74
2021/08/09 02:10:09;;;;;;;10.70;5.90;;;;;;;20.74;100.00;101368.59;5050191;28;20451;-71
2021/08/09 02:12:45;;;;;;;6.90;5.80;;;;;;;20.74;100.00;101367.78;5050422;28;20867;-74
2021/08/09 02:15:11;;;;;;;8.43;6.30;;;;;;;20.82;100.00;101373.19;5050671;28;20407;-74
2021/08/09 02:17:45;;;;;;;8.00;6.00;;;;;;;20.76;100.00;101368.44;5053994;28;20414;-74
2021/08/09 02:20:31;;;;;;;9.17;5.40;;;;;;;20.82;100.00;101369.66;5053926;28;20563;-74
2021/08/09 02:23:01;;;;;;;9.10;5.53;;;;;;;20.83;100.00;101369.50;5053862;28;20403;-74
2021/08/09 02:25:32;;;;;;;13.90;6.07;;;;;;;20.75;100.00;101378.28;5053750;28;20415;-75
2021/08/09 02:28:26;;;;;;;7.37;5.80;;;;;;;20.74;100.00;101381.97;5053369;28;20407;-73
2021/08/09 02:30:57;;;;;;;7.83;6.40;;;;;;;20.67;100.00;101378.22;5050978;28;20462;-74
2021/08/09 02:33:23;;;;;;;8.40;5.53;;;;;;;20.64;100.00;101369.69;5053883;28;20450;-75
2021/08/09 02:35:50;;;;;;;9.40;6.37;;;;;;;20.67;100.00;101378.22;5053604;28;20549;-75
2021/08/09 02:38:17;;;;;;;8.57;7.33;;;;;;;20.65;100.00;101372.19;5053581;28;20469;-76
2021/08/09 02:40:43;;;;;;;10.30;6.00;;;;;;;20.56;100.00;101380.28;5053637;28;20918;-75
2021/08/09 02:43:10;;;;;;;14.10;6.50;;;;;;;20.49;100.00;101383.56;5053327;28;20416;-74
2021/08/09 02:45:36;;;;;;;9.87;6.30;;;;;;;20.57;100.00;101380.13;5053823;28;20401;-73
2021/08/09 02:48:02;;;;;;;8.67;7.03;;;;;;;20.56;100.00;101383.81;5053062;28;20912;-75
2021/08/09 02:50:28;;;;;;;11.13;6.73;;;;;;;20.53;100.00;101380.56;5053571;28;20494;-75
2021/08/09 02:52:55;;;;;;;8.10;5.90;;;;;;;20.53;100.00;101380.56;5053235;28;20829;-75
2021/08/09 02:55:22;;;;;;;14.03;7.07;;;;;;;20.46;100.00;101385.69;5053063;28;20258;-74
2021/08/09 02:57:49;;;;;;;10.80;6.83;;;;;;;20.47;100.00;101382.00;5053007;28;20414;-75
2021/08/09 03:00:15;;;;;;;8.20;6.70;;;;;;;20.53;100.00;101388.59;5053144;28;20431;-75
2021/08/09 03:02:42;;;;;;;10.47;6.27;;;;;;;20.48;100.00;101389.06;5053211;28;20434;-74
2021/08/09 03:05:11;;;;;;;8.20;6.40;;;;;;;20.56;100.00;101394.47;5053185;28;20464;-75
2021/08/09 03:07:39;;;;;;;9.10;6.10;;;;;;;20.52;100.00;101394.91;5053108;28;20419;-74
2021/08/09 03:10:06;;;;;;;9.97;7.10;;;;;;;20.50;100.00;101385.25;5052761;28;20444;-75
2021/08/09 03:12:32;;;;;;;10.97;7.13;;;;;;;20.57;100.00;101398.00;5052820;28;20547;-75
2021/08/09 03:14:58;;;;;;;12.33;6.70;;;;;;;20.59;100.00;101396.84;5052713;28;20415;-75
2021/08/09 03:17:23;;;;;;;9.80;6.87;;;;;;;20.47;100.00;101400.69;5051241;28;20189;-75
2021/08/09 03:19:49;;;;;;;9.13;7.23;;;;;;;20.42;100.00;101398.47;5052527;28;20225;-75
2021/08/09 03:22:14;;;;;;;9.70;6.73;;;;;;;20.43;100.00;101410.00;5052683;28;20171;-75
2021/08/09 03:24:40;;;;;;;10.10;7.80;;;;;;;20.41;100.00;101401.28;5052795;28;20211;-74
2021/08/09 03:27:05;;;;;;;10.43;8.67;;;;;;;20.42;100.00;101406.47;5052190;28;20173;-74
2021/08/09 03:29:31;;;;;;;11.97;8.70;;;;;;;20.35;100.00;101407.22;5052343;28;20169;-74
2021/08/09 03:31:57;;;;;;;17.87;10.93;;;;;;;20.41;100.00;101411.97;5052392;28;20191;-72
2021/08/09 03:34:22;;;;;;;20.50;14.90;;;;;;;20.38;100.00;101413.09;5052348;28;20161;-73
2021/08/09 03:36:49;;;;;;;24.20;15.83;;;;;;;20.38;100.00;101410.41;5052605;28;20260;-74
2021/08/09 03:39:16;;;;;;;22.93;19.90;;;;;;;20.36;100.00;101414.25;5051989;28;20187;-74
2021/08/09 03:41:42;;;;;;;21.60;16.70;;;;;;;20.38;100.00;101413.09;5052104;28;20415;-72
2021/08/09 03:44:08;;;;;;;24.20;18.87;;;;;;;20.47;100.00;101409.53;5052395;28;20887;-73
2021/08/09 03:46:33;;;;;;;30.70;21.30;;;;;;;20.46;100.00;101415.03;5052588;28;20403;-74
2021/08/09 03:49:03;;;;;;;30.80;22.13;;;;;;;20.48;100.00;101413.09;5052150;28;20400;-74
2021/08/09 03:51:28;;;;;;;26.20;20.53;;;;;;;20.56;100.00;101415.84;5052027;28;20161;-74
2021/08/09 03:53:54;;;;;;;36.03;22.90;;;;;;;20.57;100.00;101414.84;5052270;28;20439;-74
2021/08/09 03:56:19;;;;;;;25.83;20.57;;;;;;;20.53;100.00;101418.78;5052294;28;20179;-74
2021/08/09 03:58:45;;;;;;;30.90;19.80;;;;;;;20.53;100.00;101413.44;5043780;28;20210;-73
2021/08/09 04:01:10;;;;;;;26.67;19.70;;;;;;;20.53;100.00;101415.28;5046108;28;20289;-75
2021/08/09 04:03:36;;;;;;;29.50;19.97;;;;;;;20.56;100.00;101415.00;5051922;28;20254;-74
2021/08/09 04:06:01;;;;;;;25.80;18.27;;;;;;;20.68;100.00;101421.78;5051771;28;20176;-76
2021/08/09 04:08:27;;;;;;;28.93;17.77;;;;;;;20.71;100.00;101417.00;5051501;28;20550;-75
2021/08/09 04:10:53;;;;;;;26.53;17.20;;;;;;;20.76;100.00;101428.03;5051472;28;20199;-74
2021/08/09 04:13:19;;;;;;;20.53;14.97;;;;;;;20.82;100.00;101421.25;5051355;28;20451;-75
2021/08/09 04:15:45;;;;;;;24.13;14.90;;;;;;;20.82;100.00;101423.94;5051526;28;20279;-74
2021/08/09 04:18:11;;;;;;;22.97;16.43;;;;;;;20.88;100.00;101419.81;5051547;28;20467;-74
2021/08/09 04:20:37;;;;;;;27.20;18.10;;;;;;;20.92;100.00;101415.84;5051299;28;20820;-74
2021/08/09 04:23:03;;;;;;;36.50;24.53;;;;;;;21.04;100.00;101404.78;5051093;28;20163;-75
2021/08/09 04:25:29;;;;;;;35.33;25.10;;;;;;;21.11;100.00;101412.19;5051495;28;20451;-74
2021/08/09 04:27:54;;;;;;;41.83;26.20;;;;;;;21.17;100.00;101407.06;5051169;28;20447;-75
2021/08/09 04:30:20;;;;;;;49.37;33.47;;;;;;;21.23;100.00;101411.75;5051210;28;20165;-74
2021/08/09 04:32:45;;;;;;;54.50;36.20;;;;;;;21.26;100.00;101415.97;5051003;28;20197;-75
2021/08/09 04:35:12;;;;;;;60.13;39.37;;;;;;;21.35;100.00;101415.06;5050887;28;20673;-75
2021/08/09 04:37:38;;;;;;;63.43;42.07;;;;;;;21.60;100.00;101414.22;5050847;28;20627;-75
2021/08/09 04:40:05;;;;;;;68.97;48.10;;;;;;;22.25;100.00;101404.88;5050704;28;20510;-74
2021/08/09 04:42:31;;;;;;;85.17;55.90;;;;;;;22.39;100.00;101399.75;5050806;28;20420;-74
2021/08/09 04:44:57;;;;;;;69.73;47.03;;;;;;;22.20;100.00;101400.00;5050990;28;20414;-74
2021/08/09 04:47:23;;;;;;;65.40;46.60;;;;;;;22.09;100.00;101402.97;5050691;28;20420;-75
2021/08/09 04:49:49;;;;;;;64.40;47.47;;;;;;;22.02;100.00;101402.75;5050619;28;20414;-74
2021/08/09 04:52:15;;;;;;;69.10;51.17;;;;;;;22.09;100.00;101405.66;5050005;28;20199;-74
2021/08/09 04:54:41;;;;;;;92.33;57.00;;;;;;;22.10;100.00;101405.50;5050357;28;20227;-74
2021/08/09 04:57:06;;;;;;;87.20;61.70;;;;;;;22.09;100.00;101409.19;5050264;28;20431;-77
2021/08/09 04:59:32;;;;;;;86.33;59.50;;;;;;;22.11;100.00;101407.16;5050434;28;20168;-76
2021/08/09 05:01:57;;;;;;;91.40;59.50;;;;;;;22.19;100.00;101403.69;5049334;28;20177;-75
2021/08/09 05:04:23;;;;;;;99.97;62.10;;;;;;;22.29;100.00;101401.72;5050645;28;20188;-73
2021/08/09 05:06:49;;;;;;;97.73;66.27;;;;;;;22.31;100.00;101412.28;5050927;28;20766;-74
2021/08/09 05:09:15;;;;;;;101.53;67.70;;;;;;;22.43;100.00;101419.81;5050565;28;20164;-76
2021/08/09 05:11:41;;;;;;;128.17;90.40;;;;;;;22.33;100.00;101424.50;5050184;28;20485;-75
2021/08/09 05:14:07;;;;;;;138.90;92.33;;;;;;;22.32;100.00;101424.66;5050340;28;20412;-76
2021/08/09 05:16:34;;;;;;;137.13;93.97;;;;;;;22.26;100.00;101434.16;5050169;28;20264;-75
2021/08/09 05:19:03;;;;;;;137.73;97.47;;;;;;;22.20;100.00;101431.28;5049850;28;20291;-76
2021/08/09 05:21:34;;;;;;;121.33;83.03;;;;;;;22.22;100.00;101423.94;5050183;28;20400;-75
2021/08/09 05:24:01;;;;;;;107.33;68.00;;;;;;;22.25;100.00;101423.63;5050006;28;20872;-74
2021/08/09 05:26:28;;;;;;;91.23;62.47;;;;;;;22.35;100.00;101421.63;5050294;28;20411;-75
2021/08/09 05:28:53;;;;;;;72.30;48.90;;;;;;;22.53;100.00;101414.34;5049878;28;20415;-76
2021/08/09 05:31:19;;;;;;;79.67;52.97;;;;;;;22.68;100.00;101427.94;5050577;28;20410;-76
2021/08/09 05:33:44;;;;;;;74.80;47.17;;;;;;;22.76;100.00;101413.72;5050170;28;20193;-75
2021/08/09 05:36:10;;;;;;;67.13;43.50;;;;;;;22.86;100.00;101420.63;5050454;28;20165;-74
2021/08/09 05:38:37;;;;;;;53.70;39.13;;;;;;;23.03;100.00;101415.25;5049850;28;20319;-76
2021/08/09 05:41:03;;;;;;;59.60;37.07;;;;;;;23.19;100.00;101420.63;5050001;28;20422;-74
2021/08/09 05:43:29;;;;;;;56.17;34.87;;;;;;;23.35;100.00;101412.59;5050149;28;20523;-75
2021/08/09 05:45:55;;;;;;;53.30;35.93;;;;;;;23.40;100.00;101418.25;5049812;28;20961;-75
2021/08/09 05:48:20;;;;;;;54.70;41.67;;;;;;;23.46;100.00;101417.59;5049804;28;20423;-76
2021/08/09 05:50:46;;;;;;;52.70;41.37;;;;;;;23.57;100.00;101412.88;5051382;28;20168;-75
2021/08/09 05:53:11;;;;;;;60.40;38.07;;;;;;;23.64;100.00;101412.03;5053987;28;20185;-76
2021/08/09 05:55:37;;;;;;;35.53;25.80;;;;;;;23.70;100.00;101416.72;5053644;28;20193;-76
2021/08/09 05:58:02;;;;;;;33.30;26.70;;;;;;;23.79;100.00;101409.50;5053469;28;20673;-76
2021/08/09 06:00:28;;;;;;;32.20;23.47;;;;;;;23.89;100.00;101410.16;5052390;28;20169;-76
2021/08/09 06:02:53;;;;;;;27.77;22.47;;;;;;;23.87;100.00;101409.47;5042984;28;20196;-75
2021/08/09 06:05:19;;;;;;;34.37;19.23;;;;;;;23.97;100.00;101410.13;5049949;28;20192;-75
2021/08/09 06:07:44;;;;;;;24.33;17.70;;;;;;;24.03;100.00;101408.56;5053623;28;20180;-75
2021/08/09 06:10:10;;;;;;;20.70;16.83;;;;;;;24.10;100.00;101412.22;5053078;28;20168;-73
2021/08/09 06:12:37;;;;;;;34.80;23.50;;;;;;;24.16;100.00;101416.91;5053567;28;20200;-75
2021/08/09 06:15:04;;;;;;;38.13;23.40;;;;;;;24.13;100.00;101417.28;5053330;28;20408;-75
2021/08/09 06:17:31;;;;;;;35.80;24.60;;;;;;;24.08;100.00;101409.72;5053887;28;20396;-75
2021/08/09 06:19:57;;;;;;;31.27;20.67;;;;;;;24.17;100.00;101409.69;5053093;28;20509;-75
2021/08/09 06:22:22;;;;;;;27.80;18.80;;;;;;;24.34;100.00;101405.97;5052996;28;20403;-77
2021/08/09 06:24:48;;;;;;;20.50;17.33;;;;;;;24.47;100.00;101416.94;5053551;28;20165;-77
2021/08/09 06:27:13;;;;;;;19.93;13.90;;;;;;;24.54;100.00;101407.16;5051578;28;20255;-76
2021/08/09 06:29:39;;;;;;;24.93;17.80;;;;;;;24.62;100.00;101407.09;5053543;28;20161;-76
2021/08/09 06:32:04;;;;;;;21.87;14.30;;;;;;;24.72;100.00;101393.47;5052802;28;20270;-75
2021/08/09 06:34:30;;;;;;;21.50;14.20;;;;;;;24.86;100.00;101408.81;5053228;28;20165;-76
2021/08/09 06:36:55;;;;;;;31.60;14.93;;;;;;;24.89;100.00;101402.22;5051456;28;20243;-76
2021/08/09 06:39:21;;;;;;;18.37;12.03;;;;;;;25.00;100.00;101401.78;5053151;28;20703;-75
2021/08/09 06:41:47;;;;;;;15.90;8.13;;;;;;;25.13;100.00;101393.16;5053082;28;20264;-75
2021/08/09 06:44:12;;;;;;;10.97;8.30;;;;;;;25.32;100.00;101386.44;5052782;28;20348;-74
2021/08/09 06:46:38;;;;;;;10.73;6.90;;;;;;;25.48;100.00;101388.94;5052878;28;20414;-75
2021/08/09 06:49:04;;;;;;;22.13;9.40;;;;;;;25.60;100.00;101390.16;5052188;28;20219;-75
2021/08/09 06:51:30;;;;;;;12.57;8.60;;;;;;;25.63;100.00;101392.50;5052592;28;20180;-74
2021/08/09 06:53:56;;;;;;;10.83;7.20;;;;;;;25.73;100.00;101385.00;5052471;28;20546;-76
2021/08/09 06:56:22;;;;;;;12.90;7.00;;;;;;;25.84;100.00;101385.53;5052324;28;20671;-76
2021/08/09 06:58:47;;;;;;;13.63;7.20;;;;;;;25.93;100.00;101384.44;5052738;28;20931;-76
2021/08/09 07:01:13;;;;;;;13.20;8.07;;;;;;;26.12;100.00;101386.53;5052109;28;20551;-76
2021/08/09 07:03:39;;;;;;;9.60;6.63;;;;;;;26.25;100.00;101381.31;5051037;28;20180;-76
2021/08/09 07:06:05;;;;;;;13.10;8.43;;;;;;;26.24;100.00;101376.94;5052454;28;20166;-76
2021/08/09 07:08:30;;;;;;;11.33;8.00;;;;;;;26.47;100.00;101379.50;5052420;28;20473;-76
2021/08/09 07:10:56;;;;;;;10.33;6.70;;;;;;;26.47;100.00;101384.91;5052343;28;20570;-76
2021/08/09 07:13:21;;;;;;;13.60;7.47;;;;;;;26.63;100.00;101391.91;5052464;28;20288;-75
2021/08/09 07:15:47;;;;;;;8.70;6.67;;;;;;;26.71;100.00;101385.56;5052273;28;20632;-75
2021/08/09 07:18:15;;;;;;;9.00;4.47;;;;;;;26.85;100.00;101387.34;5051994;28;20224;-74
2021/08/09 07:20:40;;;;;;;9.03;4.70;;;;;;;26.99;100.00;101391.84;5052179;28;20184;-75
2021/08/09 07:23:06;;;;;;;7.73;4.93;;;;;;;27.13;100.00;101383.88;5051489;28;20443;-74
2021/08/09 07:25:32;;;;;;;13.20;4.77;;;;;;;27.25;100.00;101393.94;5052029;28;20260;-76
2021/08/09 07:27:58;;;;;;;6.43;3.53;;;;;;;27.35;100.00;101380.94;5052045;28;20625;-75
2021/08/09 07:30:23;;;;;;;9.60;5.07;;;;;;;27.49;100.00;101392.66;5051993;28;20434;-75
2021/08/09 07:32:49;;;;;;;9.67;4.33;;;;;;;27.60;100.00;101396.69;5051914;28;20197;-76
2021/08/09 07:35:15;;;;;;;10.20;4.30;;;;;;;27.61;100.00;101390.25;5051802;28;20204;-74
2021/08/09 07:37:40;;;;;;;14.10;5.27;;;;;;;27.60;100.00;101400.22;5051427;28;20643;-74
2021/08/09 07:40:07;;;;;;;10.30;4.40;;;;;;;27.79;100.00;101398.69;5051775;28;20173;-75
2021/08/09 07:42:32;;;;;;;8.10;4.53;;;;;;;27.83;100.00;101394.56;5051533;28;20180;-76
2021/08/09 07:44:59;;;;;;;10.83;5.67;;;;;;;27.92;100.00;101398.75;5052176;28;20400;-76
2021/08/09 07:47:25;;;;;;;10.60;5.60;;;;;;;27.96;100.00;101401.06;5051846;28;20629;-76
2021/08/09 07:49:51;;;;;;;12.73;8.70;;;;;;;28.00;100.00;101403.16;5051734;28;20411;-75
2021/08/09 07:52:16;;;;;;;17.13;9.53;;;;;;;28.01;100.00;101404.00;5050321;28;20684;-75
2021/08/09 07:54:42;;;;;;;13.63;8.70;;;;;;;28.02;100.00;101402.97;5051397;28;20433;-76
2021/08/09 07:57:07;;;;;;;14.53;9.47;;;;;;;27.98;100.00;101399.00;5051124;28;20597;-76
2021/08/09 07:59:33;;;;;;;19.27;10.60;;;;;;;27.82;100.00;101413.69;5050953;28;20184;-75
2021/08/09 08:02:04;;;;;;;12.90;8.90;;;;;;;27.72;100.00;101411.31;5049636;28;20185;-76
2021/08/09 08:04:31;;;;;;;15.37;8.40;;;;;;;27.77;100.00;101410.75;5050405;28;20437;-74
2021/08/09 08:06:57;;;;;;;10.50;8.30;;;;;;;27.74;100.00;101420.09;5049088;28;20414;-75
2021/08/09 08:09:23;;;;;;;12.80;8.90;;;;;;;27.76;100.00;101415.31;5039034;28;20429;-75
2021/08/09 08:11:48;;;;;;;10.43;8.20;;;;;;;27.65;100.00;101415.81;5051279;28;20408;-76
2021/08/09 08:14:14;;;;;;;13.87;7.10;;;;;;;27.74;100.00;101411.97;5050466;28;20200;-78
2021/08/09 08:16:40;;;;;;;10.93;6.60;;;;;;;27.93;100.00;101411.22;5051239;28;20177;-74
2021/08/09 08:19:06;;;;;;;9.33;6.97;;;;;;;28.00;100.00;101410.44;5050685;28;20204;-76
2021/08/09 08:21:31;;;;;;;7.60;5.20;;;;;;;28.08;100.00;101416.50;5051128;28;20176;-76
2021/08/09 08:23:57;;;;;;;8.90;4.90;;;;;;;28.19;100.00;101405.13;5049488;28;20200;-75
2021/08/09 08:26:23;;;;;;;11.37;5.20;;;;;;;28.23;100.00;101410.13;5050721;28;20641;-74
2021/08/09 08:28:48;;;;;;;6.77;4.00;;;;;;;28.27;100.00;101404.13;5050668;28;20232;-76
2021/08/09 08:31:14;;;;;;;7.57;5.30;;;;;;;28.32;100.00;101404.34;5050874;28;20283;-77
2021/08/09 08:33:39;;;;;;;7.27;5.03;;;;;;;28.33;100.00;101410.59;5050808;28;20196;-76
2021/08/09 08:36:05;;;;;;;9.40;4.90;;;;;;;28.46;100.00;101407.94;5050414;28;20638;-75
2021/08/09 08:38:30;;;;;;;8.53;4.47;;;;;;;28.56;100.00;101413.78;5050533;28;20179;-76
2021/08/09 08:40:57;;;;;;;9.50;4.40;;;;;;;28.56;100.00;101411.06;5050281;28;20319;-77
2021/08/09 08:43:25;;;;;;;8.60;5.70;;;;;;;28.58;100.00;101411.72;5050748;28;20185;-76
2021/08/09 08:45:58;;;;;;;7.30;4.90;;;;;;;28.61;100.00;101410.47;5050799;28;20408;-75
2021/08/09 08:48:26;;;;;;;8.83;5.00;;;;;;;28.56;100.00;101412.94;5050578;28;20415;-75
2021/08/09 08:50:52;;;;;;;7.93;5.50;;;;;;;28.55;100.00;101409.41;5050644;28;20415;-76
2021/08/09 08:53:19;;;;;;;10.63;6.43;;;;;;;28.58;100.00;101406.31;5050457;28;20443;-76
2021/08/09 08:55:45;;;;;;;8.37;5.97;;;;;;;28.54;100.00;101412.31;5050087;28;20415;-75
2021/08/09 08:58:11;;;;;;;10.10;6.30;;;;;;;28.63;100.00;101411.91;5050176;28;20789;-76
2021/08/09 09:00:43;;;;;;;15.60;7.40;;;;;;;28.73;100.00;101408.84;5050119;28;20493;-76
2021/08/09 09:03:39;;;;;;;9.67;7.80;;;;;;;28.76;100.00;101405.72;5038052;28;20190;-76
2021/08/09 09:06:10;;;;;;;11.30;7.43;;;;;;;28.81;100.00;101411.34;5038357;28;20420;-76
2021/08/09 09:08:49;;;;;;;9.93;6.70;;;;;;;28.81;100.00;101405.09;5049870;28;20403;-77
2021/08/09 09:11:37;;;;;;;11.70;6.73;;;;;;;28.80;100.00;101406.97;5050570;28;20396;-73
2021/08/09 09:14:04;;;;;;;10.90;6.90;;;;;;;28.80;100.00;101404.28;5048666;28;20974;-76
2021/08/09 09:16:45;;;;;;;10.23;6.83;;;;;;;28.87;100.00;101409.66;5050197;28;20412;-75
2021/08/09 09:19:14;;;;;;;8.83;6.73;;;;;;;28.90;100.00;101399.31;5049913;28;20470;-74
2021/08/09 09:21:43;;;;;;;12.00;7.13;;;;;;;28.93;100.00;101412.41;5049742;28;20408;-76
2021/08/09 09:24:17;;;;;;;10.10;7.00;;;;;;;29.00;100.00;101413.25;5050011;28;20434;-76
2021/08/09 09:26:57;;;;;;;10.20;7.30;;;;;;;29.04;100.00;101412.88;5049475;28;20404;-76
2021/08/09 09:29:24;;;;;;;13.70;6.90;;;;;;;29.06;100.00;101408.91;5049375;28;20801;-76
2021/08/09 09:31:53;;;;;;;8.77;6.83;;;;;;;29.17;100.00;101402.88;5048155;28;20424;-76
2021/08/09 09:34:22;;;;;;;9.07;7.23;;;;;;;29.07;100.00;101409.72;5049893;28;20411;-75
2021/08/09 09:36:52;;;;;;;11.93;5.80;;;;;;;28.94;100.00;101408.69;5040933;28;20454;-76
2021/08/09 09:39:29;;;;;;;9.53;6.30;;;;;;;29.13;100.00;101407.03;5046308;28;20423;-75
2021/08/09 09:41:59;;;;;;;10.53;7.03;;;;;;;29.35;100.00;101404.94;5050106;28;20403;-74
2021/08/09 09:44:27;;;;;;;10.60;6.83;;;;;;;29.38;100.00;101409.91;5049450;28;20420;-75
2021/08/09 09:47:16;;;;;;;14.43;7.03;;;;;;;29.50;100.00;101412.88;5048549;28;20415;-76
2021/08/09 09:49:42;;;;;;;8.27;6.67;;;;;;;29.45;100.00;101405.31;5049580;28;20442;-75
2021/08/09 09:52:07;;;;;;;11.17;6.93;;;;;;;29.39;100.00;101414.28;5049897;28;20455;-76
2021/08/09 09:54:34;;;;;;;6.30;5.10;;;;;;;29.43;100.00;101404.72;5049679;28;20205;-75
2021/08/09 09:57:01;;;;;;;7.67;6.10;;;;;;;29.46;100.00;101411.56;5049762;28;20193;-77
2021/08/09 09:59:28;;;;;;;11.93;5.70;;;;;;;29.56;100.00;101403.91;5050338;28;20407;-75
2021/08/09 10:01:54;;;;;;;7.97;5.53;;;;;;;29.57;100.00;101402.84;5049617;28;20553;-75
2021/08/09 10:04:20;;;;;;;7.87;6.93;;;;;;;29.62;100.00;101402.19;5049270;28;20399;-74
2021/08/09 10:06:46;;;;;;;8.37;4.70;;;;;;;29.54;100.00;101398.66;5049377;28;20188;-75
2021/08/09 10:09:13;;;;;;;13.13;8.87;;;;;;;29.55;100.00;101399.53;5049183;28;20423;-76
2021/08/09 10:11:42;;;;;;;8.20;5.00;;;;;;;29.51;100.00;101399.09;5049524;28;20848;-78
2021/08/09 10:14:10;;;;;;;9.27;5.53;;;;;;;29.58;100.00;101398.25;5048945;28;20439;-76
2021/08/09 10:16:38;;;;;;;7.90;4.70;;;;;;;29.67;100.00;101396.97;5049702;28;20564;-75
2021/08/09 10:19:04;;;;;;;8.77;4.03;;;;;;;29.69;100.00;101405.72;5049254;28;20498;-76
2021/08/09 10:21:31;;;;;;;8.97;4.07;;;;;;;29.77;100.00;101398.19;5049307;28;20419;-77
2021/08/09 10:23:56;;;;;;;10.63;7.33;;;;;;;29.78;100.00;101401.75;5049146;28;20738;-76
2021/08/09 10:26:30;;;;;;;6.30;4.40;;;;;;;29.79;100.00;101395.28;5049033;28;20881;-75
2021/08/09 10:28:55;;;;;;;4.50;2.83;;;;;;;29.81;100.00;101394.03;5049228;28;20169;-76
2021/08/09 10:31:35;;;;;;;6.60;3.77;;;;;;;29.95;100.00;101391.28;5050654;28;20412;-76
2021/08/09 10:34:05;;;;;;;6.33;4.40;;;;;;;30.08;100.00;101392.09;5049278;28;20189;-74
2021/08/09 10:37:13;;;;;;;8.37;4.40;;;;;;;30.16;100.00;101390.19;5049573;28;20412;-76
2021/08/09 10:39:50;;;;;;;9.37;4.20;;;;;;;30.23;100.00;101399.94;5029230;28;20582;-75
2021/08/09 10:42:43;;;;;;;7.13;4.80;;;;;;;30.30;100.00;101397.19;5053084;28;20419;-75
2021/08/09 10:45:13;;;;;;;5.43;3.20;;;;;;;30.46;100.00;101393.97;5053176;28;20414;-77
2021/08/09 10:47:45;;;;;;;4.50;2.50;;;;;;;30.67;100.00;101388.22;5052952;28;20412;-75
2021/08/09 10:50:29;;;;;;;6.90;3.53;;;;;;;30.87;100.00;101382.66;5052511;28;20519;-75
2021/08/09 10:52:55;;;;;;;8.73;3.23;;;;;;;30.88;100.00;101386.19;5052948;28;20454;-76
2021/08/09 10:55:32;;;;;;;5.27;3.53;;;;;;;30.82;100.00;101382.47;5044712;28;20428;-76
2021/08/09 10:58:05;;;;;;;9.37;3.50;;;;;;;30.79;100.00;101379.38;5048343;28;20260;-75
2021/08/09 11:00:42;;;;;;;7.37;3.33;;;;;;;30.99;100.00;101388.22;5053023;28;20404;-74
2021/08/09 11:03:10;;;;;;;4.93;2.93;;;;;;;31.11;100.00;101380.16;5053219;28;20453;-75
2021/08/09 11:05:36;;;;;;;4.70;2.90;;;;;;;31.08;100.00;101380.63;5052435;28;20411;-74
2021/08/09 11:08:24;;;;;;;8.40;3.60;;;;;;;31.24;100.00;101382.78;5052362;28;20411;-76
2021/08/09 11:10:56;;;;;;;5.53;3.13;;;;;;;31.53;100.00;101372.28;5029680;28;20188;-76
2021/08/09 11:13:23;;;;;;;7.60;2.77;;;;;;;31.49;100.00;101375.41;5051749;28;20585;-75